N32EP KFRG-KFRG

Flight info

Callsign N32EP
Flight time N/A
Altitude VFR
Route
Aircraft SR22/L-DOV/C

Departure

Time 2026-04-29 23:51
Airport Republic Airport (KFRG)

Arrival

Time N/A
Airport Republic Airport (KFRG)
Time Latitude Longitude Altitude Speed Heading
2026-04-29 23:44 40.73910 -73.41348 77 ft 1 kts 213°
2026-04-29 23:44 40.73909 -73.41349 77 ft 0 kts 205°
2026-04-29 23:45 40.73908 -73.41350 77 ft 1 kts 200°
2026-04-29 23:45 40.73894 -73.41363 77 ft 5 kts 241°
2026-04-29 23:45 40.73851 -73.41383 77 ft 8 kts 177°
2026-04-29 23:45 40.73801 -73.41383 77 ft 5 kts 208°
2026-04-29 23:46 40.73793 -73.41436 77 ft 8 kts 270°
2026-04-29 23:46 40.73772 -73.41521 77 ft 5 kts 208°
2026-04-29 23:46 40.73729 -73.41550 76 ft 8 kts 209°
2026-04-29 23:46 40.73653 -73.41563 76 ft 11 kts 196°
2026-04-29 23:47 40.73582 -73.41613 75 ft 12 kts 209°
2026-04-29 23:47 40.73504 -73.41672 74 ft 13 kts 212°
2026-04-29 23:47 40.73421 -73.41734 74 ft 9 kts 217°
2026-04-29 23:47 40.73364 -73.41779 74 ft 8 kts 222°
2026-04-29 23:48 40.73380 -73.41838 74 ft 9 kts 310°
2026-04-29 23:48 40.73443 -73.41927 74 ft 16 kts 311°
2026-04-29 23:48 40.73474 -73.42009 74 ft 5 kts 293°
2026-04-29 23:48 40.73473 -73.42017 74 ft 0 kts 178°
2026-04-29 23:49 40.73471 -73.42020 74 ft 1 kts 251°
2026-04-29 23:50 40.73468 -73.42035 74 ft 0 kts 252°
2026-04-29 23:50 40.73456 -73.42080 74 ft 13 kts 252°
2026-04-29 23:50 40.73283 -73.41912 73 ft 64 kts 133°
2026-04-29 23:51 40.72910 -73.41371 286 ft 85 kts 131°
2026-04-29 23:51 40.72477 -73.40771 504 ft 100 kts 134°
2026-04-29 23:51 40.72107 -73.39938 760 ft 112 kts 103°
2026-04-29 23:51 40.72228 -73.38921 992 ft 124 kts 67°
2026-04-29 23:52 40.72783 -73.38061 986 ft 122 kts 50°
2026-04-29 23:52 40.73439 -73.37382 960 ft 124 kts 22°
2026-04-29 23:52 40.74273 -73.37557 949 ft 126 kts 324°
2026-04-29 23:52 40.74859 -73.38397 939 ft 124 kts 313°
2026-04-29 23:53 40.75454 -73.39223 918 ft 125 kts 314°
2026-04-29 23:53 40.76076 -73.40001 953 ft 122 kts 319°
2026-04-29 23:53 40.76698 -73.40739 988 ft 120 kts 311°
2026-04-29 23:53 40.76948 -73.41731 1008 ft 115 kts 261°
2026-04-29 23:54 40.76635 -73.42659 1027 ft 109 kts 227°
2026-04-29 23:54 40.76111 -73.43369 948 ft 101 kts 221°
2026-04-29 23:54 40.75632 -73.43970 858 ft 91 kts 212°
2026-04-29 23:54 40.75063 -73.44067 724 ft 84 kts 158°
2026-04-29 23:55 40.74546 -73.43665 580 ft 88 kts 144°
2026-04-29 23:55 40.74093 -73.43102 405 ft 92 kts 133°
2026-04-29 23:55 40.73679 -73.42484 245 ft 85 kts 133°
2026-04-29 23:55 40.73307 -73.41948 107 ft 73 kts 134°
2026-04-29 23:56 40.73009 -73.41517 70 ft 51 kts 134°
2026-04-29 23:56 40.72735 -73.41121 67 ft 82 kts 133°
2026-04-29 23:56 40.72339 -73.40550 370 ft 88 kts 131°
2026-04-29 23:56 40.71933 -73.39893 594 ft 102 kts 115°
2026-04-29 23:57 40.72051 -73.38924 757 ft 125 kts 53°
2026-04-29 23:57 40.72812 -73.38258 983 ft 136 kts 32°
2026-04-29 23:57 40.73768 -73.38187 1007 ft 143 kts 341°
2026-04-29 23:57 40.74559 -73.38977 1013 ft 143 kts 313°
2026-04-29 23:58 40.75220 -73.39919 983 ft 139 kts 308°
2026-04-29 23:58 40.75357 -73.41011 883 ft 116 kts 235°
2026-04-29 23:58 40.74726 -73.41518 577 ft 109 kts 197°
2026-04-29 23:58 40.74037 -73.41815 404 ft 96 kts 195°
2026-04-29 23:59 40.73456 -73.41976 189 ft 79 kts 171°
2026-04-29 23:59 40.73069 -73.41605 71 ft 59 kts 135°
2026-04-29 23:59 40.72816 -73.41235 67 ft 66 kts 134°
2026-04-29 23:59 40.72433 -73.40681 269 ft 88 kts 131°
2026-04-30 00:00 40.72010 -73.40065 572 ft 93 kts 132°
2026-04-30 00:00 40.71845 -73.39274 835 ft 103 kts 79°
2026-04-30 00:00 40.72373 -73.38563 984 ft 119 kts 32°
2026-04-30 00:00 40.73147 -73.38252 982 ft 119 kts 360°
2026-04-30 00:01 40.73870 -73.38681 1001 ft 118 kts 316°
2026-04-30 00:01 40.74430 -73.39526 924 ft 123 kts 309°
2026-04-30 00:01 40.74968 -73.40351 779 ft 118 kts 311°
2026-04-30 00:01 40.75355 -73.41221 635 ft 98 kts 277°
2026-04-30 00:02 40.75134 -73.41999 570 ft 92 kts 221°
2026-04-30 00:02 40.74719 -73.42587 522 ft 84 kts 224°
2026-04-30 00:02 40.74298 -73.43062 481 ft 72 kts 189°
2026-04-30 00:02 40.73872 -73.42754 356 ft 78 kts 135°
2026-04-30 00:03 40.73488 -73.42203 157 ft 81 kts 135°
2026-04-30 00:03 40.73149 -73.41719 73 ft 58 kts 134°
2026-04-30 00:03 40.72860 -73.41294 68 ft 85 kts 134°
2026-04-30 00:03 40.72417 -73.40683 337 ft 94 kts 134°
2026-04-30 00:04 40.71986 -73.40052 681 ft 93 kts 131°
2026-04-30 00:04 40.71565 -73.39411 966 ft 97 kts 131°
2026-04-30 00:04 40.71093 -73.38654 1038 ft 115 kts 131°
2026-04-30 00:04 40.70500 -73.37777 1001 ft 141 kts 133°
2026-04-30 00:05 40.69823 -73.36798 1014 ft 146 kts 133°
2026-04-30 00:05 40.69136 -73.35799 1021 ft 148 kts 133°
2026-04-30 00:05 40.68417 -73.34841 1091 ft 144 kts 137°
2026-04-30 00:05 40.67681 -73.33994 1181 ft 135 kts 141°
2026-04-30 00:06 40.66962 -73.33272 1271 ft 128 kts 145°
2026-04-30 00:06 40.66254 -73.32580 1359 ft 124 kts 131°
2026-04-30 00:06 40.65918 -73.31564 1452 ft 122 kts 109°
2026-04-30 00:06 40.65696 -73.30468 1471 ft 125 kts 107°
2026-04-30 00:07 40.65474 -73.29345 1473 ft 128 kts 107°